METAR AND TAF INFORMATION
METAR FOR EPWA
ADDS - METARS form results

(1009 UTC 21 October 2020)
Data provider http://aviationweather.gov/metar/data/
 
METAR text: EPWA 211000Z 20006KT CAVOK 12/07 Q1015 NOSIG
Conditions at: EPWA (WARSAW/OKECIE , PL) observed 1000 UTC 21 October 2020
Temperature: 12.0°C (54°F)
Dewpoint: 7.0°C (45°F) [RH = 71%]
Pressure (altimeter): 29.97 inches Hg (1015.0 mb)
Winds: from the SSW (200 degrees) at 7 MPH (6 knots; 3.1 m/s)
Visibility: 6 or more miles (10+ km)
Ceiling: ceiling and visibility are OK
Clouds: unknown
Weather: no significant weather observed at this time

METAR text: EPWA 210930Z 20005KT 170V230 CAVOK 11/07 Q1015 NOSIG
Conditions at: EPWA (WARSAW/OKECIE , PL) observed 0930 UTC 21 October 2020
Temperature: 11.0°C (52°F)
Dewpoint: 7.0°C (45°F) [RH = 76%]
Pressure (altimeter): 29.97 inches Hg (1015.0 mb)
Winds: from the SSW (200 degrees) at 6 MPH (5 knots; 2.6 m/s)
Visibility: 6 or more miles (10+ km)
Ceiling: ceiling and visibility are OK
Clouds: unknown
Weather: no significant weather observed at this time

Forecast for: EPWA (WARSAW/OKECIE , PL)
Text: TAF EPWA 210830Z 2109/2209 20008KT CAVOK
Forecast period: 0900 UTC 21 October 2020 to 0900 UTC 22 October 2020
Forecast type: FROM: standard forecast or significant change
Winds: from the SSW (200 degrees) at 9 MPH (8 knots; 4.1 m/s)
Visibility: 6 or more miles (10+ km)
Ceiling: unknown
Clouds: missing
Weather: NSW  (no significant weather)

 AIRPORT MAP

 RUNWAY INFORMATION
Runway 11 Runway length 9186 ft Runway width 164 ft
Runway elevation 361 ft Runway displaced threshold 0 ft Runway heading 115
Runway 29 Runway length 9186 ft Runway width 164 ft
Runway elevation 344 ft Runway displaced threshold 1640 ft Runway heading 295
Runway 15 Runway length 12106 ft Runway width 197 ft
Runway elevation 351 ft Runway displaced threshold 0 ft Runway heading 152
Runway 33 Runway length 12106 ft Runway width 197 ft
Runway elevation 351 ft Runway displaced threshold 0 ft Runway heading 332

 AIRPORT FREQUENCIES
Type APP Name WARSZAWA A Frequency 128.8 MHZ
Type ATIS Name ATIS Frequency 120.45 MHZ
Type CLD Name CLNC DEL Frequency 121.6 MHZ
Type DIR Name WARSZAWA D Frequency 129.375 MHZ
Type GND Name GND Frequency 121.9 MHZ
Type TWR Name TWR Frequency 118.3 MHZ

 AIRPORT NEAR NAVIGATION AIDS
Type VOR-DME Name Okecie Frequency 113400 KHZ
Type NDB Name Piaseczno Frequency 330 KHZ
Type NDB Name Warszawa Frequency 336 KHZ
Type NDB Name Warszawa Frequency 412 KHZ
Type VOR-DME Name Zaborowek Frequency 114900 KHZ